Pagina principale
METAR-TAF:

METAR-TAF

Aeroporti :

Quaqtaq, Québec, Canada

latitudine: 61-03N, longitudine: 069-38W, altezza: 30 m

Osservazione

Il bollettino è stato emesso 8 ore e 53 minuti fa, alle 21:00 UTC
Vento 8 kt da est/nord-est
Temperature -3°C
Umidità 80%
Pressione 1031 hPa
Visibilità: 24.1 km
Cielo coperto ad un'altezza di 1000 ft

METAR: CYHA 182100Z 06008KT 15SM OVC010 M03/M06 A3046 RMK ST8 LAST OBS/NEXT 191200UTC SLP321

Ora: 01:53 (05:53 UTC)

Previsione

Il bollettino è stato emesso 9 ore e 13 minuti fa, alle 20:40 UTC
Previsione valida dal 18 alle 20 UTC al 18 alle 21 UTC
Vento 10 kt da est/nord-est
Visibilità: 10 km
Cielo coperto ad un'altezza di 1000 ft

TAF: CYHA 182040Z 1820/1821 07010KT P6SM OVC010 RMK NXT FCST BY 191400Z

Osservazioni e previsioni meteorologiche di più di 4000 aeroporti (messaggi METAR e TAF).

Le stazioni disponibili sono rappresentate dai dischi gialli e rossi sulla carta.

Puntare il mouse per vedere il nome della stazione.

Clicca sopra per visualizzare le osservazioni e previsioni meteorologiche.

Per cambiare la mappa : fare clic sui pulsanti verdi con una croce nera per ingrandire, il pulsante verde con un trattino per diminuire, o sulla freccia verde per le mappe adiacenti.


METAR-TAF: